Time;durP1;ratioP1;P1;durP2;ratioP2;P2;SDS_P1;SDS_P2;PMS_P1;PMS_P2;Temp;Humidity;BMP_temperature;BMP_pressure;BME280_temperature;BME280_humidity;BME280_pressure;Samples;Min_cycle;Max_cycle;Signal;HPM_P1;HPM_P2
2021/01/29 09:53:45;;;;;;;1.57;0.70;;;11.10;99.90;;;;;;6135893;23;20912;-89
2021/01/29 09:59:19;;;;;;;3.90;1.10;;;10.60;99.90;;;;;;6140072;23;20702;-91
2021/01/29 10:05:28;;;;;;;1.83;0.50;;;10.00;99.90;;;;;;6141857;23;20388;-90
2021/01/29 10:08:13;;;;;;;1.07;0.57;;;9.70;99.90;;;;;;6124961;23;20467;-89
2021/01/29 10:11:08;;;;;;;1.10;0.60;;;9.70;99.90;;;;;;6136429;23;20912;-90
2021/01/29 10:13:55;;;;;;;2.00;0.50;;;9.80;99.90;;;;;;6133878;23;20741;-91
2021/01/29 10:16:38;;;;;;;0.70;0.40;;;9.80;99.90;;;;;;6138156;23;20938;-91
2021/01/29 10:19:14;;;;;;;1.73;1.40;;;9.80;99.90;;;;;;6136217;23;20832;-92
2021/01/29 10:22:06;;;;;;;1.80;0.60;;;9.70;99.90;;;;;;6139328;23;20408;-93
2021/01/29 10:24:57;;;;;;;1.47;0.47;;;9.90;99.90;;;;;;6139814;23;20548;-92
2021/01/29 10:27:54;;;;;;;1.40;0.40;;;10.40;99.90;;;;;;6139090;23;20443;-92
2021/01/29 10:47:39;;;;;;;1.27;1.17;;;11.00;99.90;;;;;;6112826;23;20514;-89
2021/01/29 10:50:29;;;;;;;0.97;0.60;;;11.40;99.90;;;;;;6109260;23;20405;-90
2021/01/29 10:53:32;;;;;;;1.77;0.67;;;11.60;99.90;;;;;;6110691;23;20417;-88
2021/01/29 10:56:26;;;;;;;1.50;0.67;;;11.60;99.90;;;;;;6106963;23;20954;-90
2021/01/29 10:59:15;;;;;;;3.97;0.90;;;11.60;99.90;;;;;;6107036;23;20869;-90
2021/01/29 11:04:32;;;;;;;2.10;1.10;;;11.70;99.90;;;;;;6170376;23;20845;-87
2021/01/29 11:07:06;;;;;;;2.40;1.10;;;11.60;99.90;;;;;;6168317;23;20395;-87
2021/01/29 11:09:50;;;;;;;1.67;0.70;;;11.50;99.90;;;;;;6144458;23;20419;-91
2021/01/29 11:16:08;;;;;;;2.07;0.93;;;10.80;99.90;;;;;;6156488;23;20493;-91
2021/01/29 11:18:47;;;;;;;1.83;0.80;;;10.80;99.90;;;;;;6143969;23;20850;-91
2021/01/29 11:21:34;;;;;;;1.83;0.80;;;10.80;99.90;;;;;;6144274;23;20405;-91
2021/01/29 14:39:48;;;;;;;2.57;0.60;;;10.80;99.90;;;;;;6140278;23;20439;-94
2021/01/29 14:42:43;;;;;;;0.30;0.30;;;10.50;99.90;;;;;;6140524;23;20420;-92
2021/01/29 14:45:32;;;;;;;1.00;0.70;;;10.40;99.90;;;;;;6141117;23;20408;-92
2021/01/29 14:48:21;;;;;;;1.70;0.83;;;10.10;99.90;;;;;;6139766;23;20456;-90
2021/01/29 14:51:42;;;;;;;2.40;0.80;;;10.00;99.90;;;;;;6139044;23;20404;-91
2021/01/29 14:54:47;;;;;;;2.53;1.37;;;10.00;99.90;;;;;;6079269;23;20422;-92
2021/01/29 14:57:30;;;;;;;0.47;0.40;;;10.00;99.90;;;;;;6124261;23;20920;-92
2021/01/29 15:03:57;;;;;;;;;;;;;;;;;;;;;
2021/01/29 15:06:40;;;;;;;1.70;0.40;;;9.90;99.90;;;;;;6143054;23;20686;-91
2021/01/29 20:36:31;;;;;;;1.20;1.10;;;6.70;99.90;;;;;;6142569;23;20768;-90
2021/01/29 20:39:11;;;;;;;1.27;0.80;;;6.60;99.90;;;;;;6138821;23;20416;-87
2021/01/29 20:42:14;;;;;;;1.20;1.10;;;6.60;99.90;;;;;;6139696;23;20398;-87
2021/01/29 20:44:50;;;;;;;1.27;1.10;;;6.60;99.90;;;;;;6137258;23;20683;-85
2021/01/29 20:47:20;;;;;;;1.50;1.40;;;6.60;99.90;;;;;;6138296;23;20801;-88
2021/01/29 20:49:58;;;;;;;2.20;1.13;;;6.50;99.90;;;;;;6139334;23;20430;-92
2021/01/29 20:52:41;;;;;;;2.63;1.60;;;6.50;99.90;;;;;;6140776;23;20443;-93
2021/01/29 21:48:30;;;;;;;2.00;1.80;;;6.60;99.90;;;;;;6114684;23;20433;-94
2021/01/29 21:51:07;;;;;;;1.37;1.27;;;6.60;99.90;;;;;;6112610;23;20426;-92
2021/01/29 21:53:51;;;;;;;4.40;1.73;;;6.50;99.90;;;;;;6114749;23;20397;-92
2021/01/29 21:56:30;;;;;;;1.40;1.30;;;6.60;99.90;;;;;;6111915;23;20451;-95
2021/01/29 22:19:39;;;;;;;0.90;0.90;;;6.60;99.90;;;;;;6176221;23;20446;-91
2021/01/29 22:27:36;;;;;;;0.60;0.60;;;6.60;99.90;;;;;;6169441;23;20546;-94
2021/01/29 22:30:20;;;;;;;1.13;0.70;;;6.50;99.90;;;;;;6175085;23;20460;-92
2021/01/29 22:47:53;;;;;;;0.97;0.90;;;6.30;99.90;;;;;;6056553;23;20439;-95
2021/01/29 22:53:58;;;;;;;2.00;1.00;;;6.40;99.90;;;;;;6177716;23;20864;-93
2021/01/29 23:04:38;;;;;;;0.77;0.77;;;6.50;99.90;;;;;;6057472;23;20394;-94
